createdAt,value
2019-02-08T00:00:27.696Z,19.13
2019-02-08T00:02:56.132Z,21.53
2019-02-08T00:05:24.570Z,17.57
2019-02-08T00:07:52.981Z,20.10
2019-02-08T00:10:21.418Z,24.00
2019-02-08T00:12:49.995Z,17.70
2019-02-08T00:15:20.147Z,17.73
2019-02-08T00:17:48.726Z,21.07
2019-02-08T00:20:17.732Z,27.13
2019-02-08T00:22:46.189Z,18.10
2019-02-08T00:25:15.909Z,22.80
2019-02-08T00:27:45.575Z,15.47
2019-02-08T00:30:16.365Z,20.33
2019-02-08T00:32:45.877Z,19.37
2019-02-08T00:35:15.275Z,18.50
2019-02-08T00:37:43.643Z,22.67
2019-02-08T00:40:13.511Z,16.53
2019-02-08T00:42:42.034Z,16.63
2019-02-08T00:45:11.938Z,18.83
2019-02-08T00:47:40.455Z,17.70
2019-02-08T00:50:10.604Z,19.77
2019-02-08T00:52:38.919Z,19.33
2019-02-08T00:55:08.599Z,16.93
2019-02-08T00:57:37.006Z,20.53
2019-02-08T01:00:06.919Z,16.57
2019-02-08T01:02:36.236Z,19.97
2019-02-08T01:05:06.354Z,19.47
2019-02-08T01:07:35.026Z,19.97
2019-02-08T01:10:05.056Z,16.37
2019-02-08T01:12:33.530Z,19.67
2019-02-08T01:15:02.034Z,17.93
2019-02-08T01:17:30.658Z,20.67
2019-02-08T01:19:59.195Z,10.23
2019-02-08T01:22:28.698Z,18.00
2019-02-08T01:24:57.052Z,19.30
2019-02-08T01:27:25.554Z,18.50
2019-02-08T01:29:53.857Z,18.57
2019-02-08T01:32:22.309Z,21.47
2019-02-08T01:34:50.814Z,16.43
2019-02-08T01:37:19.197Z,23.33
2019-02-08T01:39:47.708Z,21.43
2019-02-08T01:42:15.991Z,18.57
2019-02-08T01:44:44.358Z,16.50
2019-02-08T01:47:12.800Z,22.93
2019-02-08T01:49:41.138Z,22.33
2019-02-08T01:52:09.546Z,17.80
2019-02-08T01:54:37.938Z,18.73
2019-02-08T01:57:06.219Z,18.07
2019-02-08T01:59:34.658Z,16.03
2019-02-08T02:02:03.199Z,18.60
2019-02-08T02:04:31.581Z,18.23
2019-02-08T02:06:59.946Z,24.73
2019-02-08T02:09:28.426Z,20.50
2019-02-08T02:11:56.899Z,16.70
2019-02-08T02:14:26.760Z,16.43
2019-02-08T02:16:55.432Z,17.43
2019-02-08T02:19:23.894Z,18.93
2019-02-08T02:21:52.474Z,20.33
2019-02-08T02:24:20.851Z,18.80
2019-02-08T02:26:49.246Z,16.63
2019-02-08T02:29:17.614Z,13.50
2019-02-08T02:31:45.858Z,23.50
2019-02-08T02:34:14.377Z,18.33
2019-02-08T02:36:42.838Z,17.90
2019-02-08T02:39:11.216Z,19.40
2019-02-08T02:41:39.726Z,18.70
2019-02-08T02:44:08.066Z,19.37
2019-02-08T02:46:36.356Z,19.80
2019-02-08T02:49:04.969Z,21.80
2019-02-08T02:51:33.312Z,21.50
2019-02-08T02:54:04.959Z,19.87
2019-02-08T02:56:31.821Z,18.83
2019-02-08T02:59:00.238Z,18.67
2019-02-08T03:01:28.688Z,15.53
2019-02-08T03:03:56.918Z,9.70
2019-02-08T03:06:25.266Z,20.50
2019-02-08T03:08:53.734Z,19.37
2019-02-08T03:11:22.141Z,19.93
2019-02-08T03:13:50.578Z,15.30
2019-02-08T03:16:19.058Z,20.00
2019-02-08T03:18:47.566Z,18.10
2019-02-08T03:21:15.861Z,15.33
2019-02-08T03:23:44.214Z,15.47
2019-02-08T03:26:12.730Z,20.70
2019-02-08T03:28:41.174Z,19.07
2019-02-08T03:31:09.676Z,20.97
2019-02-08T03:33:38.047Z,17.80
2019-02-08T03:36:06.634Z,16.93
2019-02-08T03:38:34.937Z,12.80
2019-02-08T03:41:03.386Z,16.70
2019-02-08T03:43:31.834Z,18.50
2019-02-08T03:46:00.125Z,16.77
2019-02-08T03:48:28.505Z,21.50
2019-02-08T03:50:56.892Z,20.50
2019-02-08T03:53:25.375Z,20.60
2019-02-08T03:55:58.508Z,18.30
2019-02-08T03:58:23.934Z,16.40
2019-02-08T04:00:54.087Z,20.27
2019-02-08T04:03:23.446Z,19.53
2019-02-08T04:05:52.010Z,20.17
2019-02-08T04:08:20.559Z,23.53
2019-02-08T04:10:48.738Z,18.47
2019-02-08T04:13:17.109Z,18.43
2019-02-08T04:15:45.593Z,16.93
2019-02-08T04:18:13.748Z,18.73
2019-02-08T04:20:42.252Z,17.43
2019-02-08T04:23:10.560Z,17.00
2019-02-08T04:25:38.747Z,18.73
2019-02-08T04:28:07.195Z,19.30
2019-02-08T04:30:35.618Z,19.93
2019-02-08T04:33:04.266Z,16.33
2019-02-08T04:35:32.646Z,17.80
2019-02-08T04:38:01.162Z,17.13
2019-02-08T04:40:29.594Z,19.93
2019-02-08T04:42:58.019Z,18.07
2019-02-08T04:45:26.345Z,14.70
2019-02-08T04:47:54.861Z,23.70
2019-02-08T04:50:24.877Z,17.10
2019-02-08T04:52:54.378Z,17.87
2019-02-08T04:55:22.868Z,20.13
2019-02-08T04:57:51.146Z,21.90
2019-02-08T05:00:21.146Z,11.50
2019-02-08T05:02:49.546Z,21.70
2019-02-08T05:05:18.041Z,19.53
2019-02-08T05:07:46.608Z,18.03
2019-02-08T05:10:16.715Z,20.60
2019-02-08T05:12:45.182Z,18.17
2019-02-08T05:15:13.924Z,19.73
2019-02-08T05:17:42.324Z,18.80
2019-02-08T05:20:13.389Z,22.97
2019-02-08T05:22:41.900Z,17.33
2019-02-08T05:25:10.713Z,19.57
2019-02-08T05:27:39.117Z,23.63
2019-02-08T05:30:08.888Z,17.63
2019-02-08T05:32:37.206Z,19.73
2019-02-08T05:35:06.812Z,20.27
2019-02-08T05:37:35.358Z,18.80
2019-02-08T05:40:05.551Z,16.77
2019-02-08T05:42:33.966Z,20.87
2019-02-08T05:45:02.226Z,21.53
2019-02-08T05:47:30.594Z,20.07
2019-02-08T05:49:58.887Z,20.27
2019-02-08T05:52:27.474Z,21.50
2019-02-08T05:54:55.787Z,14.60
2019-02-08T05:57:24.126Z,15.70
2019-02-08T05:59:52.483Z,20.63
2019-02-08T06:02:20.911Z,21.33
2019-02-08T06:04:49.355Z,18.57
2019-02-08T06:07:18.283Z,17.47
2019-02-08T06:09:46.675Z,19.90
2019-02-08T06:12:14.954Z,24.47
2019-02-08T06:14:43.178Z,19.20
2019-02-08T06:17:11.458Z,21.43
2019-02-08T06:19:39.934Z,17.33
2019-02-08T06:22:08.526Z,21.10
2019-02-08T06:24:36.944Z,16.40
2019-02-08T06:27:05.331Z,23.13
2019-02-08T06:29:34.221Z,15.37
2019-02-08T06:32:02.798Z,21.20
2019-02-08T06:34:31.259Z,20.67
2019-02-08T06:36:59.619Z,19.07
2019-02-08T06:39:29.337Z,18.20
2019-02-08T06:41:57.892Z,11.67
2019-02-08T06:44:26.816Z,17.40
2019-02-08T06:46:55.239Z,12.60
2019-02-08T06:49:23.674Z,21.63
2019-02-08T06:51:52.055Z,18.17
2019-02-08T06:54:20.343Z,19.13
2019-02-08T06:56:51.426Z,21.53
2019-02-08T06:59:21.383Z,18.90
2019-02-08T07:01:51.338Z,19.57
2019-02-08T07:04:21.516Z,21.13
2019-02-08T07:06:51.500Z,18.93
2019-02-08T07:09:21.457Z,18.67
2019-02-08T07:11:51.374Z,21.23
2019-02-08T07:14:21.243Z,20.17
2019-02-08T07:16:51.184Z,16.47
2019-02-08T07:19:21.174Z,18.47
2019-02-08T07:21:51.027Z,23.03
2019-02-08T07:24:21.023Z,18.33
2019-02-08T07:26:50.985Z,22.83
2019-02-08T07:29:23.522Z,23.73
2019-02-08T07:31:53.574Z,19.97
2019-02-08T07:34:21.785Z,21.20
2019-02-08T07:36:50.151Z,17.53
2019-02-08T07:39:21.594Z,16.43
2019-02-08T07:41:51.626Z,17.10
2019-02-08T07:44:22.779Z,19.70
2019-02-08T07:46:54.139Z,20.90
2019-02-08T07:49:24.602Z,17.27
2019-02-08T07:51:54.513Z,19.97
2019-02-08T07:54:24.505Z,21.43
2019-02-08T07:56:54.849Z,15.67
2019-02-08T07:59:23.049Z,19.40
2019-02-08T08:01:53.043Z,16.73
2019-02-08T08:04:23.175Z,10.97
2019-02-08T08:06:53.205Z,22.20
2019-02-08T08:09:23.535Z,19.77
2019-02-08T08:11:53.711Z,23.57
2019-02-08T08:14:23.755Z,24.87
2019-02-08T08:16:54.785Z,22.90
2019-02-08T08:19:25.179Z,21.60
2019-02-08T08:21:55.043Z,19.80
2019-02-08T08:24:27.519Z,24.13
2019-02-08T08:26:57.711Z,29.33
2019-02-08T08:29:27.940Z,20.43
2019-02-08T08:32:01.959Z,17.03
2019-02-08T08:34:32.918Z,26.03
2019-02-08T08:37:02.679Z,19.57
2019-02-08T08:39:34.072Z,26.40
2019-02-08T08:42:03.942Z,30.90
2019-02-08T08:44:33.741Z,24.10
2019-02-08T08:47:03.458Z,18.47
2019-02-08T08:49:33.239Z,20.07
2019-02-08T08:52:05.697Z,18.27
2019-02-08T08:54:35.788Z,19.97
2019-02-08T08:57:06.552Z,21.60
2019-02-08T08:59:36.334Z,19.97
2019-02-08T09:02:06.206Z,23.23
2019-02-08T09:04:34.115Z,19.93
2019-02-08T09:07:03.898Z,20.53
2019-02-08T09:09:33.659Z,17.00
2019-02-08T09:12:03.526Z,21.43
2019-02-08T09:14:33.268Z,14.10
2019-02-08T09:17:03.134Z,21.27
2019-02-08T09:19:30.986Z,20.27
2019-02-08T09:22:00.727Z,18.37
2019-02-08T09:24:30.498Z,24.60
2019-02-08T09:27:00.238Z,16.63
2019-02-08T09:29:30.345Z,26.37
2019-02-08T09:32:00.286Z,20.33
2019-02-08T09:34:30.098Z,20.10
2019-02-08T09:36:59.878Z,17.70
2019-02-08T09:39:29.794Z,18.73
2019-02-08T09:41:59.516Z,22.73
2019-02-08T09:44:29.413Z,14.63
2019-02-08T09:46:59.298Z,18.47
2019-02-08T09:49:29.264Z,17.87
2019-02-08T09:51:58.967Z,16.87
2019-02-08T09:54:28.790Z,25.47
2019-02-08T09:56:58.614Z,22.87
2019-02-08T09:59:28.278Z,20.27
2019-02-08T10:01:58.060Z,16.43
2019-02-08T10:04:27.763Z,21.63
2019-02-08T10:06:57.594Z,13.20
2019-02-08T10:09:27.475Z,21.37
2019-02-08T10:11:57.326Z,20.27
2019-02-08T10:14:27.278Z,22.00
2019-02-08T10:16:57.093Z,16.10
2019-02-08T10:19:25.165Z,17.00
2019-02-08T10:21:56.634Z,19.27
2019-02-08T10:24:26.742Z,20.63
2019-02-08T10:26:56.626Z,23.90
2019-02-08T10:29:26.459Z,20.70
2019-02-08T10:31:56.485Z,18.07
2019-02-08T10:34:26.166Z,21.33
2019-02-08T10:36:55.868Z,15.93
2019-02-08T10:39:25.699Z,19.67
2019-02-08T10:41:55.754Z,21.60
2019-02-08T10:44:25.666Z,17.27
2019-02-08T10:46:55.564Z,23.43
2019-02-08T10:49:25.386Z,17.30
2019-02-08T10:51:55.081Z,20.43
2019-02-08T10:54:24.841Z,22.47
2019-02-08T10:56:54.740Z,10.53
2019-02-08T10:59:24.533Z,20.67
2019-02-08T11:01:52.364Z,19.10
2019-02-08T11:04:23.464Z,20.40
2019-02-08T11:06:53.353Z,20.73
2019-02-08T11:09:23.240Z,19.73
2019-02-08T11:11:52.899Z,20.13
2019-02-08T11:14:22.844Z,19.13
2019-02-08T11:16:52.705Z,20.07
2019-02-08T11:19:20.698Z,15.27
2019-02-08T11:21:49.838Z,18.00
2019-02-08T11:24:19.418Z,20.83
2019-02-08T11:26:47.710Z,16.00
2019-02-08T11:29:16.065Z,15.00
2019-02-08T11:31:47.139Z,19.93
2019-02-08T11:34:15.775Z,15.83
2019-02-08T11:36:44.014Z,19.80
2019-02-08T11:39:13.599Z,19.03
2019-02-08T11:41:42.468Z,17.27
2019-02-08T11:44:10.817Z,17.20
2019-02-08T11:46:39.605Z,16.60
2019-02-08T11:49:07.934Z,19.67
2019-02-08T11:51:36.358Z,21.20
2019-02-08T11:54:04.903Z,18.53
2019-02-08T11:56:33.270Z,20.70
2019-02-08T11:59:01.797Z,17.97
2019-02-08T12:01:32.836Z,17.47
2019-02-08T12:04:01.261Z,17.03
2019-02-08T12:06:29.612Z,17.77
2019-02-08T12:08:58.020Z,20.10
2019-02-08T12:11:26.374Z,20.33
2019-02-08T12:13:54.674Z,17.77
2019-02-08T12:16:22.930Z,18.87
2019-02-08T12:18:51.315Z,21.23
2019-02-08T12:21:19.834Z,18.43
2019-02-08T12:23:48.274Z,18.47
2019-02-08T12:26:16.764Z,16.13
2019-02-08T12:28:45.164Z,21.80
2019-02-08T12:31:13.479Z,21.73
2019-02-08T12:33:41.867Z,19.23
2019-02-08T12:36:10.201Z,20.37
2019-02-08T12:38:39.563Z,20.33
2019-02-08T12:41:09.784Z,19.40
2019-02-08T12:43:38.919Z,18.27
2019-02-08T12:46:07.375Z,19.17
2019-02-08T12:48:36.548Z,17.60
2019-02-08T12:51:05.101Z,16.57
2019-02-08T12:53:34.539Z,16.63
2019-02-08T12:56:02.974Z,17.40
2019-02-08T12:58:43.403Z,13.27
2019-02-08T13:01:17.274Z,18.80
2019-02-08T13:03:45.529Z,18.93
2019-02-08T13:06:14.930Z,17.33
2019-02-08T13:08:43.271Z,16.13
2019-02-08T13:11:11.571Z,17.23
2019-02-08T13:13:39.833Z,14.37
2019-02-08T13:16:08.266Z,14.43
2019-02-08T13:18:36.473Z,16.13
2019-02-08T13:21:04.826Z,14.57
2019-02-08T13:23:33.235Z,15.27
2019-02-08T13:26:01.454Z,14.97
2019-02-08T13:28:29.686Z,14.87
2019-02-08T13:30:59.546Z,15.43
2019-02-08T13:33:27.818Z,14.70
2019-02-08T13:35:56.022Z,14.87
2019-02-08T13:38:24.804Z,14.03
2019-02-08T13:40:53.106Z,18.43
2019-02-08T13:43:21.403Z,15.47
2019-02-08T13:45:49.673Z,16.20
2019-02-08T13:48:17.822Z,13.70
2019-02-08T13:50:46.060Z,13.40
2019-02-08T13:53:14.221Z,12.20
2019-02-08T13:55:42.584Z,14.10
2019-02-08T13:58:11.016Z,10.27
2019-02-08T14:00:40.363Z,9.90
2019-02-08T14:03:08.904Z,13.10
2019-02-08T14:05:37.396Z,13.03
2019-02-08T14:08:05.907Z,16.77
2019-02-08T14:10:34.237Z,13.23
2019-02-08T14:13:02.589Z,12.53
2019-02-08T14:15:31.171Z,14.13
2019-02-08T14:20:49.754Z,11.97
2019-02-08T14:23:18.055Z,13.13
2019-02-08T14:25:46.408Z,13.87
2019-02-08T14:28:14.764Z,11.93
2019-02-08T14:30:43.668Z,12.87
2019-02-08T14:33:12.073Z,9.33
2019-02-08T14:35:40.712Z,12.83
2019-02-08T14:38:10.380Z,13.00
2019-02-08T14:40:38.815Z,12.13
2019-02-08T14:43:07.155Z,16.03
2019-02-08T14:45:35.469Z,17.30
2019-02-08T14:48:04.354Z,15.00
2019-02-08T14:50:32.779Z,14.33
2019-02-08T14:53:01.216Z,14.40
2019-02-08T14:55:29.536Z,19.90
2019-02-08T14:57:59.264Z,27.60
2019-02-08T15:00:27.884Z,14.07
2019-02-08T15:02:56.539Z,19.33
2019-02-08T15:05:24.880Z,15.23
2019-02-08T15:07:53.280Z,17.37
2019-02-08T15:10:23.498Z,19.00
2019-02-08T15:12:51.914Z,15.70
2019-02-08T15:15:20.405Z,19.53
2019-02-08T15:17:48.794Z,20.17
2019-02-08T15:20:18.717Z,18.43
2019-02-08T15:22:47.094Z,15.87
2019-02-08T15:25:16.019Z,21.67
2019-02-08T15:27:44.303Z,20.97
2019-02-08T15:30:14.176Z,23.10
2019-02-08T15:32:42.568Z,22.90
2019-02-08T15:35:12.412Z,23.03
2019-02-08T15:37:40.762Z,21.80
2019-02-08T15:40:10.708Z,26.70
2019-02-08T15:42:39.152Z,39.37
2019-02-08T15:45:09.001Z,34.20
2019-02-08T15:47:38.965Z,30.80
2019-02-08T15:50:08.302Z,26.77
2019-02-08T15:52:36.704Z,24.37
2019-02-08T15:55:08.619Z,18.83
2019-02-08T15:57:37.028Z,22.47
2019-02-08T16:00:06.865Z,49.43
2019-02-08T16:02:35.366Z,46.13
2019-02-08T16:05:05.515Z,27.57
2019-02-08T16:07:33.723Z,22.07
2019-02-08T16:10:02.078Z,20.43
2019-02-08T16:12:30.446Z,15.57
2019-02-08T16:14:58.955Z,23.93
2019-02-08T16:17:27.366Z,45.83
2019-02-08T16:19:56.727Z,34.47
2019-02-08T16:22:26.417Z,32.83
2019-02-08T16:24:54.833Z,34.57
2019-02-08T16:27:23.112Z,30.63
2019-02-08T16:29:51.567Z,28.00
2019-02-08T16:32:20.080Z,30.77
2019-02-08T16:34:48.634Z,26.77
2019-02-08T16:37:16.946Z,28.97
2019-02-08T16:39:45.424Z,25.13
2019-02-08T16:42:13.894Z,24.03
2019-02-08T16:44:42.289Z,20.97
2019-02-08T16:47:10.939Z,28.60
2019-02-08T16:49:39.312Z,22.50
2019-02-08T16:52:07.769Z,23.07
2019-02-08T16:54:36.098Z,21.87
2019-02-08T16:57:04.774Z,24.90
2019-02-08T16:59:33.128Z,20.30
2019-02-08T17:02:01.423Z,24.50
2019-02-08T17:04:29.906Z,22.77
2019-02-08T17:06:58.321Z,22.40
2019-02-08T17:09:26.748Z,19.13
2019-02-08T17:11:54.899Z,35.13
2019-02-08T17:14:23.234Z,23.10
2019-02-08T17:16:51.716Z,17.83
2019-02-08T17:19:20.102Z,17.50
2019-02-08T17:21:48.487Z,16.47
2019-02-08T17:24:16.790Z,17.70
2019-02-08T17:26:46.474Z,16.63
2019-02-08T17:29:14.867Z,15.00
2019-02-08T17:31:43.950Z,15.47
2019-02-08T17:34:12.270Z,18.37
2019-02-08T17:36:40.922Z,24.43
2019-02-08T17:39:10.778Z,25.57
2019-02-08T17:41:39.248Z,21.47
2019-02-08T17:44:07.682Z,20.50
2019-02-08T17:46:36.139Z,19.80
2019-02-08T17:49:04.540Z,15.80
2019-02-08T17:51:32.939Z,18.13
2019-02-08T17:54:01.358Z,18.77
2019-02-08T17:56:30.746Z,21.60
2019-02-08T17:58:59.065Z,16.90
2019-02-08T18:01:27.911Z,22.07
2019-02-08T18:03:56.198Z,12.80
2019-02-08T18:06:24.497Z,10.90
2019-02-08T18:08:52.856Z,21.40
2019-02-08T18:11:21.296Z,18.97
2019-02-08T18:13:49.547Z,20.67
2019-02-08T18:16:18.026Z,24.70
2019-02-08T18:18:46.264Z,17.67
2019-02-08T18:21:14.581Z,32.63
2019-02-08T18:23:43.026Z,25.77
2019-02-08T18:26:12.391Z,22.67
2019-02-08T18:28:40.706Z,25.67
2019-02-08T18:31:10.736Z,25.97
2019-02-08T18:33:40.426Z,23.97
2019-02-08T18:36:08.913Z,25.23
2019-02-08T18:38:37.258Z,26.00
2019-02-08T18:41:05.658Z,23.80
2019-02-08T18:43:35.020Z,20.97
2019-02-08T18:46:03.387Z,27.67
2019-02-08T18:48:31.663Z,23.83
2019-02-08T18:51:00.296Z,23.57
2019-02-08T18:53:28.635Z,23.43
2019-02-08T18:55:56.940Z,23.10
2019-02-08T18:58:25.394Z,23.30
2019-02-08T19:00:54.202Z,24.70
2019-02-08T19:03:23.514Z,21.60
2019-02-08T19:05:52.176Z,44.80
2019-02-08T19:08:20.735Z,107.33
2019-02-08T19:10:49.427Z,133.43
2019-02-08T19:13:17.712Z,40.67
2019-02-08T19:15:46.214Z,20.67
2019-02-08T19:18:14.519Z,22.97
2019-02-08T19:20:42.865Z,26.17
2019-02-08T19:23:11.246Z,23.50
2019-02-08T19:25:40.940Z,24.17
2019-02-08T19:28:09.987Z,39.63
2019-02-08T19:30:39.194Z,30.27
2019-02-08T19:33:07.627Z,29.03
2019-02-08T19:35:35.998Z,26.30
2019-02-08T19:41:32.349Z,18.17
2019-02-08T19:47:17.079Z,17.23
2019-02-08T19:49:45.512Z,24.87
2019-02-08T19:52:13.899Z,27.47
2019-02-08T19:54:43.523Z,27.10
2019-02-08T20:00:29.125Z,30.93
2019-02-08T20:06:02.210Z,29.20
2019-02-08T20:08:30.552Z,29.07
2019-02-08T20:10:58.817Z,29.57
2019-02-08T20:13:27.416Z,27.83
2019-02-08T20:19:00.230Z,31.17
2019-02-08T20:21:28.579Z,29.57
2019-02-08T20:23:57.154Z,29.43
2019-02-08T20:26:25.506Z,31.53
2019-02-08T20:28:53.779Z,30.53
2019-02-08T20:31:22.074Z,30.63
2019-02-08T20:36:55.512Z,24.80
2019-02-08T20:39:23.916Z,20.67
2019-02-08T20:41:52.263Z,22.27
2019-02-08T20:44:20.467Z,34.87
2019-02-08T20:46:48.751Z,19.93
2019-02-08T20:49:18.103Z,18.97
2019-02-08T20:51:46.313Z,21.70
2019-02-08T20:54:14.874Z,20.63
2019-02-08T20:56:43.198Z,19.07
2019-02-08T21:02:28.068Z,21.40
2019-02-08T21:08:12.928Z,27.87
2019-02-08T21:13:57.398Z,20.97
2019-02-08T21:19:41.735Z,20.27
2019-02-08T21:25:27.414Z,23.73
2019-02-08T21:27:56.053Z,28.67
2019-02-08T21:30:24.427Z,29.93
2019-02-08T21:32:55.695Z,34.87
2019-02-08T21:35:24.068Z,35.33
2019-02-08T21:41:08.298Z,31.23
2019-02-08T21:46:53.457Z,27.53
2019-02-08T21:52:37.739Z,23.43
2019-02-08T21:55:07.538Z,25.20
2019-02-08T22:00:42.147Z,22.83
2019-02-08T22:06:28.159Z,22.57
2019-02-08T22:12:12.561Z,22.90
2019-02-08T22:17:57.584Z,24.03
2019-02-08T22:20:25.978Z,24.87
2019-02-08T22:26:09.819Z,28.73
2019-02-08T22:31:54.134Z,24.60
2019-02-08T22:34:22.543Z,30.80
2019-02-08T22:36:50.822Z,32.80
2019-02-08T22:39:19.041Z,27.10
2019-02-08T22:41:47.395Z,23.50
2019-02-08T22:44:15.586Z,27.20
2019-02-08T22:46:43.942Z,28.50
2019-02-08T22:49:12.195Z,28.27
2019-02-08T22:51:41.990Z,25.33
2019-02-08T22:54:10.327Z,23.30
2019-02-08T22:56:38.547Z,29.17
2019-02-08T22:59:06.907Z,33.73
2019-02-08T23:01:35.983Z,31.27
2019-02-08T23:04:04.909Z,35.17
2019-02-08T23:06:33.360Z,29.70
2019-02-08T23:12:17.488Z,34.47
2019-02-08T23:18:03.255Z,31.23
2019-02-08T23:23:48.723Z,28.97
2019-02-08T23:29:33.054Z,25.83
2019-02-08T23:32:01.391Z,31.73
2019-02-08T23:37:48.036Z,27.33
2019-02-08T23:40:17.183Z,27.37
2019-02-08T23:42:45.521Z,28.87
2019-02-08T23:45:15.068Z,25.87
2019-02-08T23:47:43.454Z,32.50
2019-02-08T23:50:12.850Z,26.07
2019-02-08T23:52:41.355Z,28.70
2019-02-08T23:55:10.705Z,29.73
